Time;durP1;ratioP1;P1;durP2;ratioP2;P2;SDS_P1;SDS_P2;PMS_P1;PMS_P2;Temp;Humidity;BMP_temperature;BMP_pressure;BME280_temperature;BME280_humidity;BME280_pressure;Samples;Min_cycle;Max_cycle;Signal;HPM_P1;HPM_P2
2023/08/15 00:01:54;;;;;;;;;;;;;;;22.48;62.24;97289.13;565466;250;62788;-75
2023/08/15 00:04:22;;;;;;;;;;;;;;;22.48;62.24;97289.95;565486;251;64957;-75
2023/08/15 00:06:49;;;;;;;;;;;;;;;22.47;62.26;97293.68;565671;250;64980;-75
2023/08/15 00:09:17;;;;;;;;;;;;;;;22.47;62.31;97301.72;565417;251;62886;-75
2023/08/15 00:11:44;;;;;;;;;;;;;;;22.47;62.24;97293.68;565494;250;67148;-75
2023/08/15 00:14:12;;;;;;;;;;;;;;;22.47;62.25;97301.72;565424;250;66954;-75
2023/08/15 00:16:39;;;;;;;;;;;;;;;22.47;62.24;97298.24;565454;250;66130;-75
2023/08/15 00:19:07;;;;;;;;;;;;;;;22.48;62.25;97297.98;565557;250;67408;-75
2023/08/15 00:21:34;;;;;;;;;;;;;;;22.48;62.23;97297.16;565450;251;66979;-75
2023/08/15 00:24:02;;;;;;;;;;;;;;;22.47;62.25;97288.33;565476;251;65023;-75
2023/08/15 00:26:29;;;;;;;;;;;;;;;22.47;62.24;97288.33;565492;250;67175;-76
2023/08/15 00:28:58;;;;;;;;;;;;;;;22.47;62.25;97299.03;565464;251;66917;-75
2023/08/15 00:31:27;;;;;;;;;;;;;;;22.48;62.26;97289.13;565458;250;44537;-75
2023/08/15 00:33:55;;;;;;;;;;;;;;;22.47;62.24;97293.68;565532;250;68105;-75
2023/08/15 00:36:22;;;;;;;;;;;;;;;22.48;62.26;97294.48;565442;251;64412;-75
2023/08/15 00:38:49;;;;;;;;;;;;;;;22.49;62.26;97301.45;565439;250;62913;-75
2023/08/15 00:41:18;;;;;;;;;;;;;;;22.48;62.26;97299.83;565477;250;64553;-75
2023/08/15 00:43:45;;;;;;;;;;;;;;;22.48;62.28;97300.66;565406;251;67269;-75
2023/08/15 00:46:13;;;;;;;;;;;;;;;22.48;62.27;97292.63;565448;251;64952;-75
2023/08/15 00:48:40;;;;;;;;;;;;;;;22.48;62.23;97289.13;565566;250;67133;-75
2023/08/15 00:51:08;;;;;;;;;;;;;;;22.48;62.22;97289.95;565617;250;66919;-75
2023/08/15 00:53:36;;;;;;;;;;;;;;;22.48;62.25;97289.13;565522;250;66463;-75
2023/08/15 00:56:04;;;;;;;;;;;;;;;22.48;62.26;97289.13;565465;250;67357;-75
2023/08/15 00:58:31;;;;;;;;;;;;;;;22.48;62.29;97283.77;565414;250;67079;-75
2023/08/15 01:01:00;;;;;;;;;;;;;;;22.48;62.26;97289.13;565496;250;65127;-76
2023/08/15 01:03:27;;;;;;;;;;;;;;;22.48;62.28;97291.80;565505;250;66680;-75
2023/08/15 01:05:55;;;;;;;;;;;;;;;22.48;62.27;97283.77;565460;250;66929;-75
2023/08/15 01:08:23;;;;;;;;;;;;;;;22.48;62.24;97294.48;565718;250;62768;-75
2023/08/15 01:10:50;;;;;;;;;;;;;;;22.47;62.27;97295.56;565446;251;65298;-75
2023/08/15 01:13:31;;;;;;;;;;;;;;;22.48;62.25;97294.48;565515;250;64829;-75
2023/08/15 01:15:59;;;;;;;;;;;;;;;22.48;62.26;97286.44;565333;250;62954;-75
2023/08/15 01:18:37;;;;;;;;;;;;;;;22.48;62.28;97281.09;565449;251;65182;-75
2023/08/15 01:21:07;;;;;;;;;;;;;;;22.47;62.23;97280.29;565476;250;67171;-76
2023/08/15 01:23:38;;;;;;;;;;;;;;;22.48;62.26;97283.77;565429;251;65120;-76
2023/08/15 01:26:06;;;;;;;;;;;;;;;22.47;62.23;97269.58;565413;251;67134;-75
2023/08/15 01:28:33;;;;;;;;;;;;;;;22.47;62.24;97274.94;565640;250;66905;-76
2023/08/15 01:31:06;;;;;;;;;;;;;;;22.47;62.25;97287.53;565375;250;65716;-76
2023/08/15 01:33:39;;;;;;;;;;;;;;;22.47;62.24;97282.97;565219;250;64861;-76
2023/08/15 01:36:17;;;;;;;;;;;;;;;22.48;62.27;97289.13;565383;251;64920;-74
2023/08/15 01:38:49;;;;;;;;;;;;;;;22.47;62.33;97276.81;565430;250;63888;-76
2023/08/15 01:41:19;;;;;;;;;;;;;;;22.47;62.27;97263.42;565298;250;67297;-76
2023/08/15 01:43:48;;;;;;;;;;;;;;;22.47;62.25;97264.22;565435;250;65705;-77
2023/08/15 01:46:15;;;;;;;;;;;;;;;22.48;62.29;97267.70;565495;251;62907;-77
2023/08/15 01:48:43;;;;;;;;;;;;;;;22.47;62.24;97258.07;565478;250;65084;-77
2023/08/15 01:51:11;;;;;;;;;;;;;;;22.47;62.27;97252.71;565448;250;64603;-77
2023/08/15 01:53:39;;;;;;;;;;;;;;;22.47;62.26;97247.36;565466;250;62740;-77
2023/08/15 01:56:06;;;;;;;;;;;;;;;22.48;62.27;97256.98;565466;249;67149;-76
2023/08/15 01:58:34;;;;;;;;;;;;;;;22.47;62.29;97256.19;565686;249;67106;-76
2023/08/15 02:01:02;;;;;;;;;;;;;;;22.47;62.27;97252.71;565380;251;62815;-76
2023/08/15 02:03:30;;;;;;;;;;;;;;;22.47;62.29;97253.52;565449;250;67280;-76
2023/08/15 02:05:57;;;;;;;;;;;;;;;22.47;62.29;97242.00;565519;250;64872;-76
2023/08/15 02:08:25;;;;;;;;;;;;;;;22.47;62.28;97240.12;565407;251;64087;-76
2023/08/15 02:10:52;;;;;;;;;;;;;;;22.47;62.26;97240.12;565441;250;64986;-76
2023/08/15 02:13:20;;;;;;;;;;;;;;;22.47;62.27;97239.33;565435;251;66971;-77
2023/08/15 02:15:47;;;;;;;;;;;;;;;22.48;62.36;97251.63;565614;250;66052;-76
2023/08/15 02:18:15;;;;;;;;;;;;;;;22.47;62.32;97240.12;565534;250;65695;-76
2023/08/15 02:20:45;;;;;;;;;;;;;;;22.48;62.33;97240.91;565639;250;66742;-76
2023/08/15 02:23:12;;;;;;;;;;;;;;;22.47;62.29;97250.03;565375;250;65236;-77
2023/08/15 02:25:40;;;;;;;;;;;;;;;22.48;62.32;97254.30;565551;250;67559;-77
2023/08/15 02:28:07;;;;;;;;;;;;;;;22.48;62.32;97248.95;565555;250;67812;-76
2023/08/15 02:30:37;;;;;;;;;;;;;;;22.47;62.29;97253.52;565459;251;65143;-77
2023/08/15 02:33:06;;;;;;;;;;;;;;;22.47;62.32;97240.12;565479;250;67394;-76
2023/08/15 02:35:34;;;;;;;;;;;;;;;22.48;62.33;97248.95;565372;250;67065;-76
2023/08/15 02:38:02;;;;;;;;;;;;;;;22.48;62.31;97248.95;565406;251;62940;-76
2023/08/15 02:40:30;;;;;;;;;;;;;;;22.48;62.29;97251.63;565510;250;65987;-76
2023/08/15 02:42:57;;;;;;;;;;;;;;;22.47;62.37;97250.83;565413;251;64817;-76
2023/08/15 02:45:24;;;;;;;;;;;;;;;22.48;62.35;97259.66;565451;251;62864;-76
2023/08/15 02:47:52;;;;;;;;;;;;;;;22.48;62.33;97251.63;565510;250;67815;-76
2023/08/15 02:50:19;;;;;;;;;;;;;;;22.48;62.29;97255.13;565423;251;66958;-76
2023/08/15 02:52:47;;;;;;;;;;;;;;;22.47;62.32;97248.16;565376;251;65286;-76
2023/08/15 02:55:14;;;;;;;;;;;;;;;22.48;62.32;97246.27;565409;250;67129;-76
2023/08/15 02:57:42;;;;;;;;;;;;;;;22.47;62.33;97240.12;565548;250;64834;-76
2023/08/15 03:00:10;;;;;;;;;;;;;;;22.47;62.33;97242.80;565483;250;62890;-76
2023/08/15 03:02:37;;;;;;;;;;;;;;;22.47;62.33;97239.33;565412;251;65379;-77
2023/08/15 03:05:05;;;;;;;;;;;;;;;22.48;62.33;97243.59;565479;250;64637;-76
2023/08/15 03:07:32;;;;;;;;;;;;;;;22.48;62.32;97246.27;565395;251;65106;-76
2023/08/15 03:10:00;;;;;;;;;;;;;;;22.48;62.38;97246.27;565546;250;67149;-76
2023/08/15 03:12:29;;;;;;;;;;;;;;;22.48;62.35;97243.59;565439;250;67244;-77
2023/08/15 03:14:57;;;;;;;;;;;;;;;22.48;62.35;97241.74;565322;251;65141;-76
2023/08/15 03:17:25;;;;;;;;;;;;;;;22.47;62.33;97244.68;565505;250;67532;-76
2023/08/15 03:19:55;;;;;;;;;;;;;;;22.47;62.34;97228.61;565433;250;66933;-76
2023/08/15 03:22:23;;;;;;;;;;;;;;;22.48;62.31;97235.56;565426;250;65148;-76
2023/08/15 03:24:50;;;;;;;;;;;;;;;22.47;62.36;97236.64;565536;249;67149;-77
2023/08/15 03:27:18;;;;;;;;;;;;;;;22.48;62.35;97232.88;565441;250;64567;-76
2023/08/15 03:29:47;;;;;;;;;;;;;;;22.48;62.35;97238.23;565438;251;62419;-76
2023/08/15 03:32:14;;;;;;;;;;;;;;;22.48;62.40;97240.91;565548;250;64234;-76
2023/08/15 03:34:42;;;;;;;;;;;;;;;22.48;62.38;97240.91;565432;250;64707;-76
2023/08/15 03:37:09;;;;;;;;;;;;;;;22.47;62.38;97240.12;565505;250;65082;-76
2023/08/15 03:39:37;;;;;;;;;;;;;;;22.47;62.35;97231.29;565434;251;67199;-77
2023/08/15 03:42:05;;;;;;;;;;;;;;;22.48;62.33;97243.59;565471;250;66675;-76
2023/08/15 03:44:32;;;;;;;;;;;;;;;22.47;62.40;97242.80;565407;251;63705;-76
2023/08/15 03:47:00;;;;;;;;;;;;;;;22.48;62.37;97254.30;565524;250;66859;-76
2023/08/15 03:49:27;;;;;;;;;;;;;;;22.47;62.37;97244.68;565283;251;66755;-76
2023/08/15 03:51:55;;;;;;;;;;;;;;;22.47;62.35;97256.19;565567;250;62789;-74
2023/08/15 03:54:22;;;;;;;;;;;;;;;22.47;62.32;97258.86;565503;250;64677;-75
2023/08/15 03:56:50;;;;;;;;;;;;;;;22.47;62.34;97261.55;565484;250;66971;-75
2023/08/15 03:59:18;;;;;;;;;;;;;;;22.48;62.31;97254.30;565488;250;65034;-75
2023/08/15 04:01:46;;;;;;;;;;;;;;;22.48;62.32;97251.63;565450;251;65136;-75
2023/08/15 04:04:13;;;;;;;;;;;;;;;22.48;62.33;97254.30;565402;250;64837;-75
2023/08/15 04:06:41;;;;;;;;;;;;;;;22.48;62.36;97262.34;565553;250;62509;-75
2023/08/15 04:09:08;;;;;;;;;;;;;;;22.47;62.32;97245.48;565388;251;65018;-75
2023/08/15 04:11:36;;;;;;;;;;;;;;;22.47;62.32;97250.03;565415;250;67026;-75
2023/08/15 04:14:04;;;;;;;;;;;;;;;22.47;62.36;97250.03;565685;250;65009;-75
2023/08/15 04:16:31;;;;;;;;;;;;;;;22.47;62.35;97248.16;565435;250;67394;-75
2023/08/15 04:18:58;;;;;;;;;;;;;;;22.48;62.34;97262.34;565431;251;66839;-75
2023/08/15 04:21:26;;;;;;;;;;;;;;;22.47;62.36;97252.71;565439;250;62809;-75
2023/08/15 04:23:54;;;;;;;;;;;;;;;22.47;62.31;97248.16;565429;250;67259;-75
2023/08/15 04:26:21;;;;;;;;;;;;;;;22.47;62.35;97255.39;565446;250;65166;-75
2023/08/15 04:28:49;;;;;;;;;;;;;;;22.47;62.34;97258.86;565563;249;64926;-75
2023/08/15 04:31:16;;;;;;;;;;;;;;;22.47;62.37;97256.19;565490;250;68210;-75
2023/08/15 04:33:44;;;;;;;;;;;;;;;22.47;62.33;97255.39;565466;250;67186;-75
2023/08/15 04:36:11;;;;;;;;;;;;;;;22.47;62.33;97253.52;565440;250;64900;-75
2023/08/15 04:38:39;;;;;;;;;;;;;;;22.47;62.33;97242.00;565506;250;67015;-75
2023/08/15 04:41:07;;;;;;;;;;;;;;;22.48;62.34;97254.30;565458;250;67351;-75
2023/08/15 04:43:34;;;;;;;;;;;;;;;22.47;62.31;97248.16;565433;250;65298;-75
2023/08/15 04:46:02;;;;;;;;;;;;;;;22.47;62.34;97250.03;565438;251;66873;-75
2023/08/15 04:48:29;;;;;;;;;;;;;;;22.47;62.34;97266.90;565452;250;66942;-75
2023/08/15 04:50:57;;;;;;;;;;;;;;;22.47;62.38;97258.07;565380;251;64935;-75
2023/08/15 04:53:24;;;;;;;;;;;;;;;22.46;62.34;97257.27;565372;251;65195;-75
2023/08/15 04:55:52;;;;;;;;;;;;;;;22.47;62.35;97263.42;565396;251;66964;-75
2023/08/15 04:58:20;;;;;;;;;;;;;;;22.47;62.37;97256.19;565447;250;65004;-75
2023/08/15 05:00:48;;;;;;;;;;;;;;;22.46;62.35;97259.95;565362;251;64463;-75
2023/08/15 05:03:15;;;;;;;;;;;;;;;22.46;62.39;97270.66;565390;250;66893;-75
2023/08/15 05:05:43;;;;;;;;;;;;;;;22.48;62.36;97267.70;565444;251;62794;-76
2023/08/15 05:08:12;;;;;;;;;;;;;;;22.47;62.35;97266.90;565456;250;67146;-75
2023/08/15 05:10:39;;;;;;;;;;;;;;;22.47;62.42;97266.11;565413;251;66958;-75
2023/08/15 05:13:07;;;;;;;;;;;;;;;22.47;62.38;97268.78;565424;250;66085;-75
2023/08/15 05:15:34;;;;;;;;;;;;;;;22.47;62.45;97272.26;565164;250;67248;-76
2023/08/15 05:18:02;;;;;;;;;;;;;;;22.46;62.42;97281.38;565070;250;69154;-76
2023/08/15 05:20:31;;;;;;;;;;;;;;;22.47;62.43;97279.49;565311;250;64788;-75
2023/08/15 05:22:58;;;;;;;;;;;;;;;22.47;62.42;97274.94;565141;251;65045;-75
2023/08/15 05:25:27;;;;;;;;;;;;;;;22.47;62.34;97282.97;565305;250;66927;-76
2023/08/15 05:27:55;;;;;;;;;;;;;;;22.47;62.46;97279.49;565222;250;65851;-75
2023/08/15 05:30:23;;;;;;;;;;;;;;;22.47;62.43;97293.68;565484;251;65006;-75
2023/08/15 05:32:51;;;;;;;;;;;;;;;22.47;62.36;97301.72;565510;251;67207;-75
2023/08/15 05:35:18;;;;;;;;;;;;;;;22.47;62.50;97306.28;565530;250;65214;-75
2023/08/15 05:37:46;;;;;;;;;;;;;;;22.47;62.46;97298.24;565499;251;67140;-75
2023/08/15 05:40:14;;;;;;;;;;;;;;;22.47;62.43;97298.24;565413;251;64715;-75
2023/08/15 05:42:41;;;;;;;;;;;;;;;22.47;62.45;97284.85;565403;250;62855;-75
2023/08/15 05:45:09;;;;;;;;;;;;;;;22.46;62.41;97286.73;564622;250;64696;-75
2023/08/15 05:47:37;;;;;;;;;;;;;;;22.46;62.43;97285.94;565107;250;69595;-75
2023/08/15 05:50:04;;;;;;;;;;;;;;;22.47;62.46;97284.85;564895;250;64983;-75
2023/08/15 05:52:32;;;;;;;;;;;;;;;22.46;62.50;97278.70;565119;251;65291;-75
2023/08/15 05:54:59;;;;;;;;;;;;;;;22.46;62.46;97281.38;565159;251;64856;-75
2023/08/15 05:57:27;;;;;;;;;;;;;;;22.47;62.47;97279.49;565209;251;62826;-75
2023/08/15 05:59:54;;;;;;;;;;;;;;;22.46;62.45;97280.58;565148;250;66853;-75
2023/08/15 06:02:22;;;;;;;;;;;;;;;22.46;62.51;97280.58;565188;250;64862;-75
2023/08/15 06:04:49;;;;;;;;;;;;;;;22.47;62.50;97282.17;565254;250;62549;-72
2023/08/15 06:07:16;;;;;;;;;;;;;;;22.46;62.51;97289.41;564441;251;67418;-67
2023/08/15 06:09:44;;;;;;;;;;;;;;;22.47;62.46;97284.85;565256;250;67083;-68
2023/08/15 06:12:11;;;;;;;;;;;;;;;22.46;62.53;97277.91;565111;251;65092;-68
2023/08/15 06:14:44;;;;;;;;;;;;;;;22.48;63.17;97278.41;565014;250;67485;-76
2023/08/15 06:17:12;;;;;;;;;;;;;;;22.49;62.85;97280.03;564909;250;64807;-70
2023/08/15 06:19:39;;;;;;;;;;;;;;;22.50;62.97;97278.94;565211;250;64953;-71
2023/08/15 06:22:06;;;;;;;;;;;;;;;22.46;63.07;97275.22;565121;251;64985;-72
2023/08/15 06:24:34;;;;;;;;;;;;;;;22.47;62.89;97271.45;563686;248;66969;-73
2023/08/15 06:27:01;;;;;;;;;;;;;;;22.48;63.58;97270.38;558400;251;65006;-72
2023/08/15 06:29:29;;;;;;;;;;;;;;;22.51;62.80;97269.85;562145;252;67124;-74
2023/08/15 06:31:58;;;;;;;;;;;;;;;22.53;62.57;97273.03;562249;252;66875;-78
2023/08/15 06:34:25;;;;;;;;;;;;;;;22.54;62.59;97278.13;562202;252;64978;-71
2023/08/15 06:36:54;;;;;;;;;;;;;;;22.55;62.51;97269.01;562185;252;67153;-64
2023/08/15 06:39:21;;;;;;;;;;;;;;;22.58;62.66;97275.70;562203;252;67066;-64
2023/08/15 06:41:49;;;;;;;;;;;;;;;22.59;62.65;97272.75;562196;252;65094;-63
2023/08/15 06:44:17;;;;;;;;;;;;;;;22.59;62.84;97270.08;562180;252;67776;-63
2023/08/15 06:46:44;;;;;;;;;;;;;;;22.61;62.86;97275.14;562299;252;66825;-69
2023/08/15 06:49:12;;;;;;;;;;;;;;;22.59;62.75;97264.72;562169;252;65412;-71
2023/08/15 06:51:39;;;;;;;;;;;;;;;22.57;62.84;97266.86;562201;252;67158;-74
2023/08/15 06:54:07;;;;;;;;;;;;;;;22.58;62.89;97267.66;560334;252;67622;-72
2023/08/15 06:56:34;;;;;;;;;;;;;;;22.58;62.91;97281.84;559834;253;64941;-70
2023/08/15 06:59:02;;;;;;;;;;;;;;;22.56;63.07;97275.98;559897;253;67154;-70
2023/08/15 07:01:29;;;;;;;;;;;;;;;22.57;63.01;97268.75;559938;253;66985;-70
2023/08/15 07:03:57;;;;;;;;;;;;;;;22.56;62.96;97264.45;562415;248;62790;-71
2023/08/15 07:06:25;;;;;;;;;;;;;;;22.57;63.07;97276.78;565232;251;64996;-71
2023/08/15 07:08:52;;;;;;;;;;;;;;;22.56;63.04;97273.31;565358;251;66899;-71
2023/08/15 07:11:20;;;;;;;;;;;;;;;22.56;63.06;97262.59;565321;251;65144;-71
2023/08/15 07:13:47;;;;;;;;;;;;;;;22.55;63.07;97266.33;565379;251;66823;-70
2023/08/15 07:16:15;;;;;;;;;;;;;;;22.57;63.17;97269.55;565344;251;66862;-70
2023/08/15 07:18:42;;;;;;;;;;;;;;;22.56;63.14;97269.80;565265;249;64946;-71
2023/08/15 07:21:10;;;;;;;;;;;;;;;22.56;63.19;97277.84;565354;251;65128;-71
2023/08/15 07:23:37;;;;;;;;;;;;;;;22.57;63.21;97276.78;565382;251;67568;-72
2023/08/15 07:26:05;;;;;;;;;;;;;;;22.57;63.29;97271.42;565376;251;65285;-71
2023/08/15 07:28:32;;;;;;;;;;;;;;;22.56;63.30;97267.95;565295;251;67129;-69
2023/08/15 07:31:00;;;;;;;;;;;;;;;22.57;63.32;97271.42;565359;251;66879;-70
2023/08/15 07:33:27;;;;;;;;;;;;;;;22.57;63.34;97271.42;565282;251;62732;-71
2023/08/15 07:35:55;;;;;;;;;;;;;;;22.56;63.35;97259.92;565432;251;64531;-70
2023/08/15 07:38:22;;;;;;;;;;;;;;;22.57;63.41;97274.11;565394;251;64696;-70
2023/08/15 07:40:50;;;;;;;;;;;;;;;22.57;63.45;97266.86;565332;251;64960;-70
2023/08/15 07:43:17;;;;;;;;;;;;;;;22.57;63.45;97272.22;565340;251;66979;-70
2023/08/15 07:45:45;;;;;;;;;;;;;;;22.57;63.52;97266.86;565308;251;66634;-70
2023/08/15 07:48:13;;;;;;;;;;;;;;;22.58;63.50;97265.77;565353;251;62890;-72
2023/08/15 07:50:40;;;;;;;;;;;;;;;22.57;63.48;97269.55;565414;250;66956;-70
2023/08/15 07:53:07;;;;;;;;;;;;;;;22.59;63.54;97267.40;565346;251;66844;-70
2023/08/15 07:55:37;;;;;;;;;;;;;;;22.58;63.54;97262.30;565223;251;65376;-71
2023/08/15 07:58:04;;;;;;;;;;;;;;;22.58;63.51;97263.09;565339;251;64676;-72
2023/08/15 08:00:32;;;;;;;;;;;;;;;22.58;63.53;97257.73;565098;251;66751;-70
2023/08/15 08:02:59;;;;;;;;;;;;;;;22.60;62.95;97257.48;565176;251;64982;-68
2023/08/15 08:05:28;;;;;;;;;;;;;;;22.61;63.30;97259.07;565279;251;67422;-67
2023/08/15 08:07:56;;;;;;;;;;;;;;;22.60;63.23;97260.95;564632;251;67322;-71
2023/08/15 08:10:24;;;;;;;;;;;;;;;22.61;63.41;97256.39;565114;251;62828;-71
2023/08/15 08:12:51;;;;;;;;;;;;;;;22.60;63.83;97246.77;565322;251;65865;-72
2023/08/15 08:15:22;;;;;;;;;;;;;;;22.60;63.93;97249.44;565075;251;64856;-72
2023/08/15 08:17:48;;;;;;;;;;;;;;;22.59;63.59;97248.65;565075;251;62844;-72
2023/08/15 08:20:17;;;;;;;;;;;;;;;22.59;63.39;97245.17;565208;251;67291;-72
2023/08/15 08:22:44;;;;;;;;;;;;;;;22.59;63.31;97254.01;565289;251;66915;-71
2023/08/15 08:25:17;;;;;;;;;;;;;;;22.59;63.53;97243.29;565354;251;62955;-73
2023/08/15 08:27:45;;;;;;;;;;;;;;;22.60;63.45;97244.09;565312;251;64828;-68
2023/08/15 08:30:14;;;;;;;;;;;;;;;22.60;63.51;97244.88;565164;251;66888;-72
2023/08/15 08:32:41;;;;;;;;;;;;;;;22.59;63.42;97243.29;565293;250;65012;-73
2023/08/15 08:35:10;;;;;;;;;;;;;;;22.61;63.63;97245.67;565135;251;67444;-69
2023/08/15 08:37:38;;;;;;;;;;;;;;;22.61;63.71;97243.00;565053;251;64807;-71
2023/08/15 08:40:07;;;;;;;;;;;;;;;22.61;63.83;97245.67;565260;251;62532;-71
2023/08/15 08:42:35;;;;;;;;;;;;;;;22.62;63.56;97247.30;565256;251;67317;-73
2023/08/15 08:45:03;;;;;;;;;;;;;;;22.61;63.65;97245.67;565203;251;64608;-73
2023/08/15 08:47:31;;;;;;;;;;;;;;;22.61;63.89;97245.67;564987;249;64955;-74
2023/08/15 08:50:00;;;;;;;;;;;;;;;22.61;63.72;97251.03;566401;248;66964;-74
2023/08/15 08:52:28;;;;;;;;;;;;;;;22.61;63.66;97245.67;568264;248;66943;-68
2023/08/15 08:54:56;;;;;;;;;;;;;;;22.60;63.57;97250.23;570361;246;63046;-76
2023/08/15 08:57:25;;;;;;;;;;;;;;;22.61;63.75;97246.47;570336;248;64561;-76
2023/08/15 08:59:54;;;;;;;;;;;;;;;22.61;63.70;97249.16;570376;248;64524;-76
2023/08/15 09:02:22;;;;;;;;;;;;;;;22.61;63.67;97241.11;570350;248;65009;-75
2023/08/15 09:04:50;;;;;;;;;;;;;;;22.61;63.70;97243.00;570336;248;66900;-76
2023/08/15 09:07:18;;;;;;;;;;;;;;;22.61;63.62;97246.47;570325;248;66804;-76
2023/08/15 09:09:45;;;;;;;;;;;;;;;22.62;63.73;97249.98;570437;248;65294;-73
2023/08/15 09:12:14;;;;;;;;;;;;;;;22.63;63.74;97248.89;567908;248;66723;-77
2023/08/15 09:14:42;;;;;;;;;;;;;;;22.63;63.80;97256.13;564583;251;66407;-76
2023/08/15 09:17:11;;;;;;;;;;;;;;;22.63;63.83;97250.77;564529;250;65091;-68
2023/08/15 09:19:42;;;;;;;;;;;;;;;22.63;63.69;97256.13;564862;250;64663;-68
2023/08/15 09:22:11;;;;;;;;;;;;;;;22.65;63.12;97251.30;564538;250;67039;-76
2023/08/15 09:24:40;;;;;;;;;;;;;;;22.64;63.28;97247.80;564642;250;65866;-76
2023/08/15 09:27:07;;;;;;;;;;;;;;;22.65;63.82;97251.30;564900;250;66843;-76
2023/08/15 09:29:35;;;;;;;;;;;;;;;22.64;64.15;97255.05;565295;251;66704;-75
2023/08/15 09:32:02;;;;;;;;;;;;;;;22.64;64.02;97247.80;565404;251;64911;-69
2023/08/15 09:34:30;;;;;;;;;;;;;;;22.64;63.87;97252.36;564962;251;66916;-70
2023/08/15 09:36:58;;;;;;;;;;;;;;;22.63;63.73;97250.77;565427;251;64702;-72
2023/08/15 09:39:25;;;;;;;;;;;;;;;22.63;63.83;97245.41;565469;251;65138;-71
2023/08/15 09:41:53;;;;;;;;;;;;;;;22.64;63.78;97255.05;565438;251;66761;-73
2023/08/15 09:44:31;;;;;;;;;;;;;;;22.64;63.79;97255.84;565443;251;66818;-72
2023/08/15 09:47:00;;;;;;;;;;;;;;;22.63;63.78;97256.92;565399;251;63039;-71
2023/08/15 09:49:31;;;;;;;;;;;;;;;22.63;63.76;97256.92;565509;251;67372;-72
2023/08/15 09:52:02;;;;;;;;;;;;;;;22.63;63.79;97251.56;565533;251;64868;-72
2023/08/15 09:54:31;;;;;;;;;;;;;;;22.64;63.79;97255.05;565325;251;65107;-72
2023/08/15 09:56:58;;;;;;;;;;;;;;;22.65;63.82;97262.02;565447;250;64743;-71
2023/08/15 09:59:26;;;;;;;;;;;;;;;22.63;63.89;97259.60;565289;251;64786;-65
2023/08/15 10:01:54;;;;;;;;;;;;;;;22.64;63.84;97257.72;565444;250;62894;-66
2023/08/15 10:04:23;;;;;;;;;;;;;;;22.64;63.92;97258.52;565435;251;67100;-66
2023/08/15 10:06:51;;;;;;;;;;;;;;;22.64;63.95;97250.48;565337;251;66840;-66
2023/08/15 10:09:19;;;;;;;;;;;;;;;22.64;63.94;97261.20;565343;251;63104;-66
2023/08/15 10:11:46;;;;;;;;;;;;;;;22.64;64.03;97266.55;565322;251;64809;-67
2023/08/15 10:14:15;;;;;;;;;;;;;;;22.64;63.97;97266.55;565391;251;66867;-70
2023/08/15 10:16:43;;;;;;;;;;;;;;;22.64;64.06;97261.20;565362;251;63016;-70
2023/08/15 10:19:12;;;;;;;;;;;;;;;22.64;64.02;97266.55;565423;250;64313;-74
2023/08/15 10:21:52;;;;;;;;;;;;;;;22.64;64.03;97269.23;565296;251;64793;-73
2023/08/15 10:24:20;;;;;;;;;;;;;;;22.65;63.97;97272.73;565305;250;65216;-73
2023/08/15 10:26:47;;;;;;;;;;;;;;;22.65;63.97;97270.05;565393;250;65524;-73
2023/08/15 10:29:15;;;;;;;;;;;;;;;22.64;64.00;97266.55;565363;250;64420;-71
2023/08/15 10:31:42;;;;;;;;;;;;;;;22.64;64.03;97263.88;564742;250;62789;-70
2023/08/15 10:34:10;;;;;;;;;;;;;;;22.64;64.03;97269.23;562409;249;64723;-77
2023/08/15 10:36:39;;;;;;;;;;;;;;;22.64;64.09;97261.20;565356;250;67000;-75
2023/08/15 10:39:07;;;;;;;;;;;;;;;22.65;64.12;97272.73;565422;250;62920;-75
2023/08/15 10:41:37;;;;;;;;;;;;;;;22.65;64.02;97267.38;565375;250;66840;-77
2023/08/15 10:44:06;;;;;;;;;;;;;;;22.66;64.13;97266.29;565485;250;66777;-77
2023/08/15 10:46:34;;;;;;;;;;;;;;;22.65;64.17;97267.38;565347;251;63775;-76
2023/08/15 10:49:09;;;;;;;;;;;;;;;22.65;64.21;97268.17;565288;251;66885;-76
2023/08/15 10:51:38;;;;;;;;;;;;;;;22.66;64.17;97263.61;565327;250;64663;-77
2023/08/15 10:54:07;;;;;;;;;;;;;;;22.65;64.19;97260.14;565381;251;62815;-77
2023/08/15 10:56:36;;;;;;;;;;;;;;;22.65;64.14;97268.17;565251;251;66702;-77
2023/08/15 10:59:07;;;;;;;;;;;;;;;22.65;64.13;97262.02;564990;250;66707;-76
2023/08/15 11:01:36;;;;;;;;;;;;;;;22.65;64.20;97268.17;565330;251;65406;-78
2023/08/15 11:04:04;;;;;;;;;;;;;;;22.65;64.17;97262.02;565317;250;67973;-76
2023/08/15 11:06:34;;;;;;;;;;;;;;;22.66;64.19;97263.61;565273;250;66730;-78
2023/08/15 11:09:01;;;;;;;;;;;;;;;22.65;64.19;97267.38;565151;251;65389;-76
2023/08/15 11:11:30;;;;;;;;;;;;;;;22.66;64.20;97269.77;565421;250;66903;-75
2023/08/15 11:13:59;;;;;;;;;;;;;;;22.65;64.17;97260.14;565237;251;66716;-78
2023/08/15 11:16:26;;;;;;;;;;;;;;;22.66;64.20;97267.09;565317;251;65213;-77
2023/08/15 11:18:56;;;;;;;;;;;;;;;22.66;64.19;97253.69;565320;251;66908;-77
2023/08/15 11:21:25;;;;;;;;;;;;;;;22.66;64.16;97261.73;565191;250;66913;-77
2023/08/15 11:23:54;;;;;;;;;;;;;;;22.66;64.13;97258.25;565181;250;62798;-76
2023/08/15 11:26:23;;;;;;;;;;;;;;;22.66;64.19;97259.05;565282;251;64240;-78
2023/08/15 11:28:51;;;;;;;;;;;;;;;22.67;64.16;97260.67;565231;251;66865;-69
2023/08/15 11:31:18;;;;;;;;;;;;;;;22.66;64.14;97259.05;565343;250;64897;-74
2023/08/15 11:33:47;;;;;;;;;;;;;;;22.67;64.05;97255.31;565319;251;66970;-76
2023/08/15 11:36:14;;;;;;;;;;;;;;;22.66;64.17;97256.37;565594;250;66728;-81
2023/08/15 11:38:42;;;;;;;;;;;;;;;22.66;64.17;97256.37;565438;251;66236;-80
2023/08/15 11:41:09;;;;;;;;;;;;;;;22.67;64.11;97249.13;565349;251;66876;-78
2023/08/15 11:43:37;;;;;;;;;;;;;;;22.67;64.14;97255.31;565382;251;66478;-77
2023/08/15 11:46:05;;;;;;;;;;;;;;;22.66;64.12;97248.33;565410;250;64956;-79
2023/08/15 11:48:33;;;;;;;;;;;;;;;22.67;64.07;97249.13;565264;251;66809;-75
2023/08/15 11:51:01;;;;;;;;;;;;;;;22.66;64.16;97252.89;565485;250;66664;-71
2023/08/15 11:53:28;;;;;;;;;;;;;;;22.67;64.12;97246.45;565392;250;66267;-71
2023/08/15 11:55:56;;;;;;;;;;;;;;;22.66;64.04;97234.94;565302;251;66654;-72
2023/08/15 11:58:24;;;;;;;;;;;;;;;22.67;64.07;97244.59;565413;250;63937;-73
2023/08/15 12:00:52;;;;;;;;;;;;;;;22.68;64.07;97251.55;565392;251;64981;-73
2023/08/15 12:03:19;;;;;;;;;;;;;;;22.67;64.07;97249.95;564953;249;66398;-72
2023/08/15 12:05:47;;;;;;;;;;;;;;;22.68;64.05;97238.15;565139;248;66863;-73
2023/08/15 12:08:16;;;;;;;;;;;;;;;22.68;64.04;97240.03;562601;252;64997;-69
2023/08/15 12:10:44;;;;;;;;;;;;;;;22.67;63.49;97247.28;561829;252;63820;-70
2023/08/15 12:13:12;;;;;;;;;;;;;;;22.68;63.41;97235.47;562663;252;66485;-73
2023/08/15 12:15:39;;;;;;;;;;;;;;;22.68;63.54;97235.47;562632;251;64984;-73
2023/08/15 12:18:07;;;;;;;;;;;;;;;22.69;63.65;97236.27;562209;252;67125;-73
2023/08/15 12:20:34;;;;;;;;;;;;;;;22.68;63.64;97238.15;562552;252;64613;-72
2023/08/15 12:23:03;;;;;;;;;;;;;;;22.69;63.68;97241.63;562263;252;62820;-73
2023/08/15 12:25:30;;;;;;;;;;;;;;;22.69;63.87;97244.30;562314;252;66817;-73
2023/08/15 12:27:58;;;;;;;;;;;;;;;22.69;63.96;97236.27;562459;252;64630;-73
2023/08/15 12:30:25;;;;;;;;;;;;;;;22.69;63.92;97241.63;562383;252;64950;-72
2023/08/15 12:32:53;;;;;;;;;;;;;;;22.69;63.96;97233.59;562587;249;67742;-73
2023/08/15 12:35:20;;;;;;;;;;;;;;;22.69;63.58;97229.03;562334;251;66749;-73
2023/08/15 12:37:48;;;;;;;;;;;;;;;22.69;64.04;97231.70;563969;248;65000;-72
2023/08/15 12:40:15;;;;;;;;;;;;;;;22.69;63.79;97231.70;564818;248;66917;-73
2023/08/15 12:42:43;;;;;;;;;;;;;;;22.69;63.80;97226.34;567440;248;66646;-70
2023/08/15 12:45:10;;;;;;;;;;;;;;;22.68;63.88;97224.76;568069;249;65084;-72
2023/08/15 12:47:38;;;;;;;;;;;;;;;22.69;63.89;97217.52;568074;249;66940;-70
2023/08/15 12:50:05;;;;;;;;;;;;;;;22.69;63.54;97220.98;568099;249;66912;-80
2023/08/15 12:52:33;;;;;;;;;;;;;;;22.69;63.72;97220.98;568362;248;65175;-74